createdAt,value
2019-02-28T00:01:55.446Z,13.30
2019-02-28T00:04:25.884Z,12.77
2019-02-28T00:06:56.497Z,12.80
2019-02-28T00:09:26.992Z,13.33
2019-02-28T00:11:57.518Z,13.57
2019-02-28T00:14:28.479Z,13.77
2019-02-28T00:16:58.940Z,13.33
2019-02-28T00:19:29.350Z,13.63
2019-02-28T00:21:59.842Z,13.03
2019-02-28T00:24:30.769Z,12.30
2019-02-28T00:27:01.341Z,13.97
2019-02-28T00:29:33.709Z,12.57
2019-02-28T00:32:03.999Z,14.57
2019-02-28T00:34:36.282Z,13.03
2019-02-28T00:37:06.676Z,13.67
2019-02-28T00:39:37.134Z,12.33
2019-02-28T00:42:07.614Z,13.70
2019-02-28T00:44:38.052Z,14.30
2019-02-28T00:47:08.639Z,13.33
2019-02-28T00:49:39.062Z,13.03
2019-02-28T00:52:09.509Z,13.77
2019-02-28T00:54:43.379Z,13.80
2019-02-28T00:57:12.192Z,13.37
2019-02-28T00:59:42.697Z,14.40
2019-02-28T01:02:13.248Z,14.03
2019-02-28T01:04:43.704Z,14.97
2019-02-28T01:07:16.337Z,14.77
2019-02-28T01:09:46.378Z,15.40
2019-02-28T01:12:19.149Z,14.07
2019-02-28T01:14:49.096Z,15.17
2019-02-28T01:17:19.523Z,15.30
2019-02-28T01:19:49.969Z,15.23
2019-02-28T01:22:20.492Z,15.10
2019-02-28T01:24:50.991Z,14.37
2019-02-28T01:27:21.824Z,15.57
2019-02-28T01:29:52.262Z,15.23
2019-02-28T01:32:22.770Z,13.70
2019-02-28T01:34:53.239Z,15.13
2019-02-28T01:37:23.811Z,15.60
2019-02-28T01:39:54.259Z,15.73
2019-02-28T01:42:24.700Z,15.70
2019-02-28T01:44:55.172Z,15.70
2019-02-28T01:47:25.724Z,17.53
2019-02-28T01:49:57.791Z,16.93
2019-02-28T01:52:28.511Z,15.13
2019-02-28T01:54:59.788Z,17.07
2019-02-28T01:57:30.235Z,17.07
2019-02-28T02:00:00.711Z,16.70
2019-02-28T02:02:31.132Z,15.73
2019-02-28T02:05:01.615Z,16.80
2019-02-28T02:07:33.221Z,16.17
2019-02-28T02:10:06.968Z,16.30
2019-02-28T02:12:37.453Z,15.87
2019-02-28T02:15:09.648Z,18.03
2019-02-28T02:17:40.094Z,18.33
2019-02-28T02:20:11.170Z,15.63
2019-02-28T02:22:44.602Z,17.30
2019-02-28T02:25:14.274Z,17.27
2019-02-28T02:27:44.791Z,17.40
2019-02-28T02:30:20.923Z,17.80
2019-02-28T02:32:51.387Z,17.27
2019-02-28T02:35:21.839Z,16.30
2019-02-28T02:37:52.619Z,18.47
2019-02-28T02:40:24.197Z,15.33
2019-02-28T02:42:54.974Z,17.40
2019-02-28T02:45:25.477Z,19.33
2019-02-28T02:47:55.963Z,18.97
2019-02-28T02:50:34.263Z,20.30
2019-02-28T02:53:04.845Z,19.37
2019-02-28T02:55:30.967Z,18.20
2019-02-28T02:58:01.386Z,18.50
2019-02-28T03:00:31.888Z,19.13
2019-02-28T03:03:06.041Z,18.53
2019-02-28T03:05:35.753Z,18.10
2019-02-28T03:08:06.781Z,18.50
2019-02-28T03:10:37.224Z,18.60
2019-02-28T03:13:07.657Z,17.70
2019-02-28T03:15:38.145Z,19.85
2019-02-28T03:18:08.583Z,18.90
2019-02-28T03:20:42.236Z,18.20
2019-02-28T03:23:11.257Z,18.00
2019-02-28T03:25:41.703Z,18.00
2019-02-28T03:28:14.041Z,19.47
2019-02-28T03:30:44.390Z,19.03
2019-02-28T03:33:23.374Z,19.03
2019-02-28T03:35:47.278Z,19.30
2019-02-28T03:38:17.731Z,20.30
2019-02-28T03:40:48.207Z,18.67
2019-02-28T03:43:18.655Z,18.97
2019-02-28T03:45:49.116Z,20.03
2019-02-28T03:48:19.577Z,20.40
2019-02-28T03:50:50.220Z,19.93
2019-02-28T03:53:21.151Z,21.27
2019-02-28T03:55:51.657Z,20.53
2019-02-28T03:58:22.139Z,19.03
2019-02-28T04:00:52.608Z,20.83
2019-02-28T04:03:23.097Z,17.97
2019-02-28T04:05:53.557Z,20.93
2019-02-28T04:08:29.363Z,19.70
2019-02-28T04:10:56.352Z,19.87
2019-02-28T04:13:26.847Z,19.87
2019-02-28T04:16:08.700Z,19.95
2019-02-28T04:18:29.703Z,20.13
2019-02-28T04:21:00.163Z,21.07
2019-02-28T04:23:35.530Z,19.17
2019-02-28T04:26:03.260Z,20.93
2019-02-28T04:28:33.704Z,20.03
2019-02-28T04:31:04.168Z,19.37
2019-02-28T04:33:38.850Z,20.90
2019-02-28T04:36:06.863Z,21.20
2019-02-28T04:38:37.294Z,19.97
2019-02-28T04:41:07.743Z,20.53
2019-02-28T04:43:38.194Z,20.80
2019-02-28T04:46:08.641Z,19.73
2019-02-28T04:48:39.176Z,20.57
2019-02-28T04:51:09.642Z,20.30
2019-02-28T04:53:40.099Z,19.40
2019-02-28T04:56:11.421Z,20.47
2019-02-28T04:58:42.682Z,19.43
2019-02-28T05:01:13.520Z,21.97
2019-02-28T05:03:43.926Z,19.57
2019-02-28T05:06:14.397Z,19.00
2019-02-28T05:08:44.853Z,20.03
2019-02-28T05:11:15.310Z,20.20
2019-02-28T05:13:48.735Z,19.27
2019-02-28T05:16:18.004Z,21.23
2019-02-28T05:18:48.451Z,20.37
2019-02-28T05:21:19.535Z,20.93
2019-02-28T05:23:50.655Z,19.53
2019-02-28T05:26:23.441Z,20.67
2019-02-28T05:28:53.556Z,21.60
2019-02-28T05:31:26.935Z,21.07
2019-02-28T05:33:56.382Z,21.13
2019-02-28T05:36:26.864Z,21.20
2019-02-28T05:38:57.442Z,22.07
2019-02-28T05:41:27.891Z,28.93
2019-02-28T05:43:58.375Z,21.77
2019-02-28T05:46:28.854Z,22.73
2019-02-28T05:48:59.317Z,21.27
2019-02-28T05:51:29.747Z,21.47
2019-02-28T05:54:00.209Z,22.73
2019-02-28T05:56:33.254Z,21.00
2019-02-28T05:59:03.006Z,23.13
2019-02-28T06:01:33.437Z,21.77
2019-02-28T06:04:04.055Z,22.27
2019-02-28T06:06:34.516Z,23.33
2019-02-28T06:09:06.269Z,22.73
2019-02-28T06:11:36.734Z,24.00
2019-02-28T06:14:07.193Z,24.10
2019-02-28T06:16:37.621Z,23.00
2019-02-28T06:19:09.092Z,23.03
2019-02-28T06:21:39.602Z,23.13
2019-02-28T06:24:12.773Z,23.50
2019-02-28T06:26:42.264Z,24.23
2019-02-28T06:29:12.739Z,22.23
2019-02-28T06:31:45.567Z,22.90
2019-02-28T06:34:15.366Z,22.30
2019-02-28T06:36:45.802Z,22.75
2019-02-28T06:39:17.579Z,22.87
2019-02-28T06:41:47.985Z,23.87
2019-02-28T06:44:18.468Z,22.10
2019-02-28T06:46:49.071Z,23.27
2019-02-28T06:49:19.513Z,23.50
2019-02-28T06:51:51.385Z,21.73
2019-02-28T06:54:22.454Z,22.33
2019-02-28T06:56:54.127Z,21.70
2019-02-28T06:59:25.176Z,23.07
2019-02-28T07:01:57.585Z,22.03
2019-02-28T07:04:28.441Z,21.93
2019-02-28T07:07:01.905Z,23.47
2019-02-28T07:09:33.652Z,22.17
2019-02-28T07:12:04.545Z,22.77
2019-02-28T07:14:35.038Z,22.70
2019-02-28T07:17:07.789Z,23.40
2019-02-28T07:19:37.799Z,23.93
2019-02-28T07:22:08.271Z,24.93
2019-02-28T07:24:38.743Z,24.33
2019-02-28T07:27:09.206Z,23.47
2019-02-28T07:29:42.705Z,25.37
2019-02-28T07:32:12.090Z,25.43
2019-02-28T07:34:42.626Z,24.37
2019-02-28T07:37:13.120Z,25.50
2019-02-28T07:39:43.658Z,25.13
2019-02-28T07:42:14.153Z,25.77
2019-02-28T07:44:44.626Z,25.73
2019-02-28T07:47:17.550Z,25.20
2019-02-28T07:49:50.075Z,25.20
2019-02-28T07:52:20.528Z,24.90
2019-02-28T07:54:51.530Z,26.90
2019-02-28T07:57:23.339Z,24.63
2019-02-28T07:59:53.851Z,24.52
2019-02-28T08:02:24.429Z,27.23
2019-02-28T08:04:55.740Z,25.17
2019-02-28T08:07:26.525Z,28.57
2019-02-28T08:09:58.119Z,26.57
2019-02-28T08:12:30.848Z,28.43
2019-02-28T08:15:00.953Z,29.77
2019-02-28T08:17:31.475Z,27.00
2019-02-28T08:20:01.975Z,27.27
2019-02-28T08:22:32.425Z,27.53
2019-02-28T08:25:02.954Z,28.13
2019-02-28T08:27:33.494Z,26.37
2019-02-28T08:30:03.970Z,27.40
2019-02-28T08:32:34.511Z,28.77
2019-02-28T08:35:05.295Z,28.30
2019-02-28T08:37:35.871Z,29.57
2019-02-28T08:40:08.213Z,29.50
2019-02-28T08:42:39.774Z,28.97
2019-02-28T08:45:12.655Z,27.93
2019-02-28T08:47:43.179Z,30.03
2019-02-28T08:50:21.485Z,30.03
2019-02-28T08:52:52.750Z,28.00
2019-02-28T08:55:28.794Z,29.70
2019-02-28T08:57:58.116Z,29.73
2019-02-28T09:00:32.613Z,29.93
2019-02-28T09:03:01.009Z,29.97
2019-02-28T09:05:31.574Z,31.00
2019-02-28T09:08:02.137Z,31.17
2019-02-28T09:10:32.609Z,30.43
2019-02-28T09:13:07.693Z,32.67
2019-02-28T09:15:37.268Z,31.07
2019-02-28T09:18:07.712Z,32.83
2019-02-28T09:20:38.187Z,34.07
2019-02-28T09:23:08.621Z,30.90
2019-02-28T09:25:39.093Z,32.43
2019-02-28T09:28:10.182Z,32.47
2019-02-28T09:30:42.173Z,31.33
2019-02-28T09:33:12.675Z,31.00
2019-02-28T09:35:46.334Z,31.53
2019-02-28T09:38:15.493Z,31.90
2019-02-28T09:40:46.009Z,31.53
2019-02-28T09:43:16.514Z,32.87
2019-02-28T09:45:47.016Z,32.30
2019-02-28T09:48:17.496Z,33.83
2019-02-28T09:50:47.942Z,35.63
2019-02-28T09:53:18.426Z,33.47
2019-02-28T09:55:48.885Z,32.60
2019-02-28T09:58:19.356Z,32.53
2019-02-28T10:00:50.433Z,32.67
2019-02-28T10:03:20.956Z,31.67
2019-02-28T10:05:51.408Z,29.97
2019-02-28T10:08:22.011Z,31.77
2019-02-28T10:10:55.791Z,32.23
2019-02-28T10:13:24.867Z,32.73
2019-02-28T10:15:55.384Z,31.17
2019-02-28T10:18:25.897Z,33.23
2019-02-28T10:20:59.102Z,30.57
2019-02-28T10:23:28.823Z,33.03
2019-02-28T10:25:59.315Z,34.07
2019-02-28T10:28:29.820Z,34.17
2019-02-28T10:31:00.304Z,30.13
2019-02-28T10:33:30.784Z,33.20
2019-02-28T10:36:01.269Z,31.47
2019-02-28T10:38:33.108Z,33.70
2019-02-28T10:41:03.904Z,34.43
2019-02-28T10:43:34.435Z,32.80
2019-02-28T10:46:05.171Z,34.17
2019-02-28T10:48:41.861Z,33.30
2019-02-28T10:51:13.987Z,33.00
2019-02-28T10:53:40.256Z,33.73
2019-02-28T10:56:10.850Z,34.07
2019-02-28T10:58:41.297Z,33.27
2019-02-28T11:01:14.150Z,33.37
2019-02-28T11:03:44.626Z,33.00
2019-02-28T11:06:15.062Z,32.63
2019-02-28T11:08:47.472Z,34.87
2019-02-28T11:11:18.690Z,34.80
2019-02-28T11:13:49.283Z,34.07
2019-02-28T11:16:20.518Z,34.00
2019-02-28T11:18:52.046Z,32.60
2019-02-28T11:21:22.715Z,32.77
2019-02-28T11:23:53.250Z,32.83
2019-02-28T11:26:23.849Z,33.83
2019-02-28T11:28:54.438Z,32.30
2019-02-28T11:31:25.831Z,35.07
2019-02-28T11:33:56.485Z,33.63
2019-02-28T11:36:26.941Z,34.00
2019-02-28T11:38:57.509Z,33.83
2019-02-28T11:41:28.069Z,32.13
2019-02-28T11:43:58.553Z,33.57
2019-02-28T11:46:29.078Z,33.37
2019-02-28T11:48:59.535Z,36.37
2019-02-28T11:51:30.375Z,33.93
2019-02-28T11:54:01.856Z,34.30
2019-02-28T11:56:32.331Z,34.73
2019-02-28T11:59:02.836Z,34.83
2019-02-28T12:01:33.422Z,32.80
2019-02-28T12:04:03.960Z,32.30
2019-02-28T12:06:34.556Z,34.77
2019-02-28T12:09:07.484Z,34.00
2019-02-28T12:11:37.950Z,33.98
2019-02-28T12:14:08.399Z,32.00
2019-02-28T12:16:38.997Z,32.20
2019-02-28T12:19:12.474Z,30.47
2019-02-28T12:21:41.676Z,27.20
2019-02-28T12:24:12.176Z,28.07
2019-02-28T12:26:42.727Z,27.67
2019-02-28T12:29:13.861Z,26.57
2019-02-28T12:31:45.495Z,28.13
2019-02-28T12:34:16.075Z,27.53
2019-02-28T12:36:49.379Z,28.27
2019-02-28T12:39:19.056Z,27.00
2019-02-28T12:41:49.661Z,29.53
2019-02-28T12:44:20.236Z,26.50
2019-02-28T12:46:50.872Z,27.33
2019-02-28T12:49:22.438Z,27.80
2019-02-28T12:51:53.884Z,29.17
2019-02-28T12:54:25.945Z,26.87
2019-02-28T12:56:56.680Z,26.53
2019-02-28T12:59:27.301Z,27.23
2019-02-28T13:01:57.879Z,27.03
2019-02-28T13:04:32.538Z,29.53
2019-02-28T13:07:02.997Z,29.10
2019-02-28T13:09:33.542Z,27.03
2019-02-28T13:12:04.048Z,28.43
2019-02-28T13:14:36.876Z,27.13
2019-02-28T13:17:06.958Z,28.20
2019-02-28T13:19:37.588Z,26.00
2019-02-28T13:22:08.123Z,26.87
2019-02-28T13:24:42.417Z,27.20
2019-02-28T13:27:11.588Z,28.27
2019-02-28T13:29:42.223Z,28.77
2019-02-28T13:32:12.992Z,29.03
2019-02-28T13:34:43.454Z,28.10
2019-02-28T13:37:14.107Z,27.50
2019-02-28T13:39:44.803Z,27.33
2019-02-28T13:42:15.260Z,28.90
2019-02-28T13:44:45.819Z,27.62
2019-02-28T13:47:16.311Z,30.47
2019-02-28T13:49:49.761Z,29.30
2019-02-28T13:52:20.583Z,29.93
2019-02-28T13:54:51.517Z,31.73
2019-02-28T13:57:21.999Z,29.93
2019-02-28T13:59:52.698Z,28.87
2019-02-28T14:02:26.230Z,30.00
2019-02-28T14:04:58.700Z,29.70
2019-02-28T14:07:30.114Z,30.07
2019-02-28T14:10:00.334Z,28.13
2019-02-28T14:12:30.897Z,30.87
2019-02-28T14:15:02.679Z,31.23
2019-02-28T14:17:35.498Z,31.07
2019-02-28T14:20:06.091Z,31.00
2019-02-28T14:22:36.609Z,31.73
2019-02-28T14:25:10.892Z,35.87
2019-02-28T14:27:41.420Z,34.27
2019-02-28T14:30:13.655Z,34.33
2019-02-28T14:32:45.516Z,34.70
2019-02-28T14:35:16.998Z,35.30
2019-02-28T14:37:47.562Z,38.80
2019-02-28T14:40:18.815Z,37.67
2019-02-28T14:42:49.407Z,34.63
2019-02-28T14:45:20.624Z,36.90
2019-02-28T14:47:57.023Z,35.17
2019-02-28T14:50:25.008Z,37.30
2019-02-28T14:52:56.617Z,36.07
2019-02-28T14:55:29.311Z,35.00
2019-02-28T14:57:59.472Z,35.67
2019-02-28T15:00:30.177Z,33.83
2019-02-28T15:03:03.041Z,33.53
2019-02-28T15:05:34.091Z,36.30
2019-02-28T15:08:06.264Z,34.03
2019-02-28T15:10:36.964Z,34.93
2019-02-28T15:13:07.553Z,36.50
2019-02-28T15:15:38.073Z,36.70
2019-02-28T15:18:10.947Z,34.13
2019-02-28T15:20:41.061Z,33.03
2019-02-28T15:23:11.546Z,32.50
2019-02-28T15:25:43.270Z,32.27
2019-02-28T15:28:14.726Z,31.07
2019-02-28T15:30:45.274Z,31.00
2019-02-28T15:33:15.799Z,31.13
2019-02-28T15:35:46.491Z,31.77
2019-02-28T15:38:18.547Z,33.93
2019-02-28T15:40:49.112Z,33.53
2019-02-28T15:43:19.573Z,33.30
2019-02-28T15:45:50.223Z,32.73
2019-02-28T15:48:20.765Z,33.47
2019-02-28T15:50:52.593Z,33.23
2019-02-28T15:53:23.280Z,32.67
2019-02-28T15:55:53.954Z,32.50
2019-02-28T15:58:26.568Z,31.83
2019-02-28T16:00:57.532Z,31.13
2019-02-28T16:03:28.076Z,31.90
2019-02-28T16:05:58.607Z,29.80
2019-02-28T16:08:29.147Z,28.60
2019-02-28T16:10:59.713Z,27.77
2019-02-28T16:13:30.184Z,26.90
2019-02-28T16:16:00.706Z,27.30
2019-02-28T16:18:31.302Z,25.10
2019-02-28T16:21:03.577Z,26.40
2019-02-28T16:23:33.941Z,23.97
2019-02-28T16:26:04.827Z,25.70
2019-02-28T16:28:35.341Z,24.43
2019-02-28T16:31:06.358Z,23.10
2019-02-28T16:33:37.830Z,24.47
2019-02-28T16:36:08.399Z,23.73
2019-02-28T16:38:38.894Z,23.20
2019-02-28T16:41:09.412Z,23.17
2019-02-28T16:43:39.855Z,23.97
2019-02-28T16:46:12.392Z,22.50
2019-02-28T16:48:42.561Z,24.83
2019-02-28T16:51:13.250Z,26.03
2019-02-28T16:53:43.749Z,24.50
2019-02-28T16:56:15.924Z,25.10
2019-02-28T16:58:46.388Z,23.87
2019-02-28T17:01:17.596Z,26.10
2019-02-28T17:03:49.186Z,25.63
2019-02-28T17:06:19.712Z,26.03
2019-02-28T17:09:01.834Z,25.37
2019-02-28T17:11:32.329Z,26.37
2019-02-28T17:14:10.303Z,23.20
2019-02-28T17:16:55.010Z,25.07
2019-02-28T17:19:28.602Z,24.37
2019-02-28T17:21:57.880Z,26.63
2019-02-28T17:24:29.549Z,26.60
2019-02-28T17:27:19.020Z,26.00
2019-02-28T17:29:57.631Z,27.23
2019-02-28T17:32:31.174Z,24.27
2019-02-28T17:34:59.838Z,24.33
2019-02-28T17:37:30.331Z,24.43
2019-02-28T17:40:00.791Z,23.90
2019-02-28T17:42:31.603Z,23.17
2019-02-28T17:45:18.175Z,22.10
2019-02-28T17:48:27.983Z,23.13
2019-02-28T17:51:09.842Z,22.67
2019-02-28T17:54:20.869Z,21.87
2019-02-28T17:57:45.105Z,21.27
2019-02-28T18:00:58.457Z,21.07
2019-02-28T18:04:36.464Z,20.43
2019-02-28T18:08:20.125Z,18.50
2019-02-28T18:11:30.943Z,16.63
2019-02-28T18:14:21.328Z,16.57
2019-02-28T18:18:08.777Z,16.43
2019-02-28T18:21:22.842Z,15.43
2019-02-28T18:25:00.402Z,15.13
2019-02-28T18:28:37.710Z,15.77
2019-02-28T18:31:19.091Z,19.33
2019-02-28T18:34:16.971Z,14.93
2019-02-28T18:36:46.612Z,18.93
2019-02-28T18:39:18.393Z,12.20
2019-02-28T18:41:50.737Z,10.37
2019-02-28T18:44:21.360Z,10.27
2019-02-28T18:46:51.954Z,9.67
2019-02-28T18:49:22.559Z,10.50
2019-02-28T18:51:53.197Z,9.00
2019-02-28T18:54:23.858Z,8.93
2019-02-28T18:56:54.396Z,8.40
2019-02-28T18:59:25.499Z,8.53
2019-02-28T19:01:56.114Z,7.83
2019-02-28T19:04:26.726Z,7.80
2019-02-28T19:06:57.361Z,7.73
2019-02-28T19:09:30.965Z,7.67
2019-02-28T19:12:01.576Z,7.27
2019-02-28T19:14:32.218Z,7.97
2019-02-28T19:17:02.918Z,6.53
2019-02-28T19:19:33.505Z,7.00
2019-02-28T19:22:04.166Z,6.60
2019-02-28T19:24:34.718Z,6.57
2019-02-28T19:27:05.257Z,5.97
2019-02-28T19:29:35.955Z,7.03
2019-02-28T19:32:06.560Z,6.57
2019-02-28T19:34:37.187Z,6.03
2019-02-28T19:37:07.815Z,6.23
2019-02-28T19:39:38.417Z,6.33
2019-02-28T19:42:08.960Z,5.53
2019-02-28T19:44:42.530Z,5.53
2019-02-28T19:47:13.070Z,5.20
2019-02-28T19:49:43.623Z,5.40
2019-02-28T19:52:14.362Z,5.40
2019-02-28T19:54:44.857Z,5.33
2019-02-28T19:57:15.461Z,5.47
2019-02-28T19:59:46.010Z,5.10
2019-02-28T20:02:16.540Z,5.40
2019-02-28T20:04:47.060Z,5.37
2019-02-28T20:07:17.666Z,5.17
2019-02-28T20:09:48.238Z,4.63
2019-02-28T20:12:18.708Z,5.10
2019-02-28T20:14:49.318Z,6.07
2019-02-28T20:17:19.924Z,5.33
2019-02-28T20:19:50.473Z,5.60
2019-02-28T20:22:20.981Z,5.57
2019-02-28T20:24:51.511Z,5.77
2019-02-28T20:27:22.070Z,5.63
2019-02-28T20:29:55.292Z,5.73
2019-02-28T20:32:25.057Z,6.77
2019-02-28T20:34:55.706Z,6.47
2019-02-28T20:37:26.263Z,6.80
2019-02-28T20:39:57.801Z,6.97
2019-02-28T20:42:28.356Z,7.60
2019-02-28T20:44:58.961Z,7.30
2019-02-28T20:47:29.457Z,7.97
2019-02-28T20:49:59.998Z,8.30
2019-02-28T20:52:30.568Z,6.97
2019-02-28T20:55:01.170Z,7.33
2019-02-28T20:57:31.689Z,6.87
2019-02-28T21:00:02.250Z,6.73
2019-02-28T21:02:32.742Z,6.17
2019-02-28T21:05:03.355Z,6.30
2019-02-28T21:07:33.852Z,6.53
2019-02-28T21:10:05.187Z,5.80
2019-02-28T21:12:35.711Z,5.10
2019-02-28T21:15:07.307Z,5.97
2019-02-28T21:17:37.872Z,5.60
2019-02-28T21:20:09.838Z,5.53
2019-02-28T21:22:40.418Z,5.13
2019-02-28T21:25:14.287Z,5.77
2019-02-28T21:27:45.118Z,5.20
2019-02-28T21:30:19.066Z,6.37
2019-02-28T21:32:49.697Z,6.83
2019-02-28T21:35:20.688Z,7.00
2019-02-28T21:37:51.482Z,6.47
2019-02-28T21:40:23.063Z,6.47
2019-02-28T21:42:53.775Z,7.23
2019-02-28T21:45:24.412Z,6.70
2019-02-28T21:47:54.974Z,8.17
2019-02-28T21:50:25.855Z,7.37
2019-02-28T21:52:56.493Z,7.90
2019-02-28T21:55:27.019Z,8.87
2019-02-28T21:57:57.588Z,8.87
2019-02-28T22:00:28.215Z,9.30
2019-02-28T22:02:58.818Z,8.97
2019-02-28T22:05:29.295Z,8.93
2019-02-28T22:07:59.793Z,9.43
2019-02-28T22:10:30.319Z,9.13
2019-02-28T22:13:00.853Z,10.80
2019-02-28T22:15:31.531Z,10.70
2019-02-28T22:18:02.008Z,9.80
2019-02-28T22:20:32.480Z,9.07
2019-02-28T22:23:02.986Z,10.47
2019-02-28T22:25:33.565Z,10.47
2019-02-28T22:28:04.090Z,8.63
2019-02-28T22:30:56.546Z,9.43
2019-02-28T22:33:39.265Z,8.20
2019-02-28T22:36:11.936Z,8.55
2019-02-28T22:38:42.475Z,7.80
2019-02-28T22:41:12.983Z,8.03
2019-02-28T22:43:43.462Z,8.50
2019-02-28T22:46:14.027Z,6.73
2019-02-28T22:48:44.533Z,7.37
2019-02-28T22:51:15.143Z,7.37
2019-02-28T22:53:45.652Z,7.47
2019-02-28T22:56:16.158Z,7.30
2019-02-28T22:58:46.649Z,7.60
2019-02-28T23:01:20.087Z,7.53
2019-02-28T23:03:50.576Z,7.47
2019-02-28T23:06:21.087Z,7.53
2019-02-28T23:08:51.601Z,8.10
2019-02-28T23:11:22.199Z,7.83
2019-02-28T23:13:52.730Z,8.60
2019-02-28T23:16:23.238Z,8.33
2019-02-28T23:18:53.841Z,8.50
2019-02-28T23:21:24.325Z,9.23
2019-02-28T23:23:55.029Z,9.70
2019-02-28T23:26:28.635Z,9.57
2019-02-28T23:29:15.454Z,9.73
2019-02-28T23:32:33.517Z,9.57
2019-02-28T23:35:04.364Z,9.47
2019-02-28T23:37:34.897Z,10.80
2019-02-28T23:40:05.757Z,10.23
2019-02-28T23:42:36.309Z,10.47
2019-02-28T23:45:06.952Z,10.47
2019-02-28T23:47:37.472Z,10.30
2019-02-28T23:50:08.887Z,10.33
2019-02-28T23:52:39.350Z,10.83
2019-02-28T23:55:09.914Z,10.73
2019-02-28T23:57:40.545Z,10.43
